sensor_id;sensor_type;location;lat;lon;timestamp;P1;durP1;ratioP1;P2;durP2;ratioP2
74900;SDS011;63461;51.416;6.758;2023-03-23T00:01:14;3.83;;;2.20;;
74900;SDS011;63461;51.416;6.758;2023-03-23T00:03:48;5.10;;;2.50;;
74900;SDS011;63461;51.416;6.758;2023-03-23T00:06:16;6.83;;;2.20;;
74900;SDS011;63461;51.416;6.758;2023-03-23T00:08:43;5.80;;;2.60;;
74900;SDS011;63461;51.416;6.758;2023-03-23T00:11:20;4.77;;;2.40;;
74900;SDS011;63461;51.416;6.758;2023-03-23T00:13:48;6.33;;;2.60;;
74900;SDS011;63461;51.416;6.758;2023-03-23T00:16:22;3.73;;;2.13;;
74900;SDS011;63461;51.416;6.758;2023-03-23T00:19:00;8.07;;;2.00;;
74900;SDS011;63461;51.416;6.758;2023-03-23T00:21:29;8.47;;;2.33;;
74900;SDS011;63461;51.416;6.758;2023-03-23T00:26:34;4.07;;;2.03;;
74900;SDS011;63461;51.416;6.758;2023-03-23T00:29:05;5.67;;;1.77;;
74900;SDS011;63461;51.416;6.758;2023-03-23T00:31:38;7.93;;;2.10;;
74900;SDS011;63461;51.416;6.758;2023-03-23T00:34:05;4.90;;;1.87;;
74900;SDS011;63461;51.416;6.758;2023-03-23T00:36:32;3.53;;;1.70;;
74900;SDS011;63461;51.416;6.758;2023-03-23T00:39:02;3.23;;;1.60;;
74900;SDS011;63461;51.416;6.758;2023-03-23T00:41:29;4.00;;;1.83;;
74900;SDS011;63461;51.416;6.758;2023-03-23T00:43:56;3.87;;;1.83;;
74900;SDS011;63461;51.416;6.758;2023-03-23T00:46:26;3.93;;;1.97;;
74900;SDS011;63461;51.416;6.758;2023-03-23T00:48:53;5.73;;;1.90;;
74900;SDS011;63461;51.416;6.758;2023-03-23T00:51:20;4.27;;;1.90;;
74900;SDS011;63461;51.416;6.758;2023-03-23T00:53:46;2.63;;;1.50;;
74900;SDS011;63461;51.416;6.758;2023-03-23T00:56:12;3.83;;;2.00;;
74900;SDS011;63461;51.416;6.758;2023-03-23T00:58:39;5.47;;;2.03;;
74900;SDS011;63461;51.416;6.758;2023-03-23T01:01:05;3.93;;;1.80;;
74900;SDS011;63461;51.416;6.758;2023-03-23T01:03:31;4.43;;;2.10;;
74900;SDS011;63461;51.416;6.758;2023-03-23T01:05:58;6.33;;;2.07;;
74900;SDS011;63461;51.416;6.758;2023-03-23T01:08:30;3.47;;;2.23;;
74900;SDS011;63461;51.416;6.758;2023-03-23T01:11:04;10.00;;;2.27;;
74900;SDS011;63461;51.416;6.758;2023-03-23T01:13:31;6.13;;;2.30;;
74900;SDS011;63461;51.416;6.758;2023-03-23T01:15:56;4.60;;;2.17;;
74900;SDS011;63461;51.416;6.758;2023-03-23T01:18:22;2.50;;;1.80;;
74900;SDS011;63461;51.416;6.758;2023-03-23T01:20:48;5.53;;;2.60;;
74900;SDS011;63461;51.416;6.758;2023-03-23T01:23:14;7.67;;;2.70;;
74900;SDS011;63461;51.416;6.758;2023-03-23T01:25:40;4.10;;;2.00;;
74900;SDS011;63461;51.416;6.758;2023-03-23T01:28:06;4.00;;;1.90;;
74900;SDS011;63461;51.416;6.758;2023-03-23T01:30:32;3.93;;;2.20;;
74900;SDS011;63461;51.416;6.758;2023-03-23T01:32:57;6.80;;;2.97;;
74900;SDS011;63461;51.416;6.758;2023-03-23T01:35:23;5.63;;;2.30;;
74900;SDS011;63461;51.416;6.758;2023-03-23T01:37:50;5.50;;;2.20;;
74900;SDS011;63461;51.416;6.758;2023-03-23T01:40:16;5.00;;;2.07;;
74900;SDS011;63461;51.416;6.758;2023-03-23T01:42:43;5.67;;;2.40;;
74900;SDS011;63461;51.416;6.758;2023-03-23T01:47:52;4.00;;;1.77;;
74900;SDS011;63461;51.416;6.758;2023-03-23T01:50:21;5.07;;;2.00;;
74900;SDS011;63461;51.416;6.758;2023-03-23T01:52:50;3.13;;;1.70;;
74900;SDS011;63461;51.416;6.758;2023-03-23T01:55:18;4.47;;;2.57;;
74900;SDS011;63461;51.416;6.758;2023-03-23T01:57:45;5.53;;;2.10;;
74900;SDS011;63461;51.416;6.758;2023-03-23T02:00:14;5.80;;;2.00;;
74900;SDS011;63461;51.416;6.758;2023-03-23T02:02:45;5.83;;;2.37;;
74900;SDS011;63461;51.416;6.758;2023-03-23T02:05:15;5.10;;;2.27;;
74900;SDS011;63461;51.416;6.758;2023-03-23T02:07:46;4.67;;;1.90;;
74900;SDS011;63461;51.416;6.758;2023-03-23T02:10:14;7.77;;;2.27;;
74900;SDS011;63461;51.416;6.758;2023-03-23T02:12:41;3.83;;;1.83;;
74900;SDS011;63461;51.416;6.758;2023-03-23T02:15:08;4.93;;;2.17;;
74900;SDS011;63461;51.416;6.758;2023-03-23T02:17:42;6.70;;;2.00;;
74900;SDS011;63461;51.416;6.758;2023-03-23T02:31:39;6.60;;;2.20;;
74900;SDS011;63461;51.416;6.758;2023-03-23T02:34:27;7.40;;;2.70;;
74900;SDS011;63461;51.416;6.758;2023-03-23T02:37:04;4.47;;;2.10;;
74900;SDS011;63461;51.416;6.758;2023-03-23T02:39:40;5.13;;;2.17;;
74900;SDS011;63461;51.416;6.758;2023-03-23T02:42:13;3.50;;;2.40;;
74900;SDS011;63461;51.416;6.758;2023-03-23T02:44:42;5.60;;;2.63;;
74900;SDS011;63461;51.416;6.758;2023-03-23T02:47:14;5.47;;;2.40;;
74900;SDS011;63461;51.416;6.758;2023-03-23T02:49:45;5.13;;;2.17;;
74900;SDS011;63461;51.416;6.758;2023-03-23T02:52:17;4.50;;;2.30;;
74900;SDS011;63461;51.416;6.758;2023-03-23T02:54:51;5.43;;;2.37;;
74900;SDS011;63461;51.416;6.758;2023-03-23T02:57:20;3.77;;;2.10;;
74900;SDS011;63461;51.416;6.758;2023-03-23T02:59:47;4.90;;;2.10;;
74900;SDS011;63461;51.416;6.758;2023-03-23T03:02:29;3.77;;;2.27;;
74900;SDS011;63461;51.416;6.758;2023-03-23T03:05:04;3.20;;;1.90;;
74900;SDS011;63461;51.416;6.758;2023-03-23T03:10:27;4.87;;;2.50;;
74900;SDS011;63461;51.416;6.758;2023-03-23T03:16:26;4.23;;;2.07;;
74900;SDS011;63461;51.416;6.758;2023-03-23T03:19:09;3.70;;;2.10;;
74900;SDS011;63461;51.416;6.758;2023-03-23T03:21:53;3.43;;;1.80;;
74900;SDS011;63461;51.416;6.758;2023-03-23T03:24:29;7.53;;;2.03;;
74900;SDS011;63461;51.416;6.758;2023-03-23T03:26:58;3.40;;;1.83;;
74900;SDS011;63461;51.416;6.758;2023-03-23T03:29:39;4.37;;;2.30;;
74900;SDS011;63461;51.416;6.758;2023-03-23T03:32:10;6.20;;;2.50;;
74900;SDS011;63461;51.416;6.758;2023-03-23T03:34:40;4.47;;;2.00;;
74900;SDS011;63461;51.416;6.758;2023-03-23T03:37:06;4.30;;;2.10;;
74900;SDS011;63461;51.416;6.758;2023-03-23T03:39:34;2.47;;;1.67;;
74900;SDS011;63461;51.416;6.758;2023-03-23T03:42:03;7.03;;;2.47;;
74900;SDS011;63461;51.416;6.758;2023-03-23T03:44:30;3.70;;;1.70;;
74900;SDS011;63461;51.416;6.758;2023-03-23T03:46:56;3.17;;;1.80;;
74900;SDS011;63461;51.416;6.758;2023-03-23T03:49:22;3.60;;;1.97;;
74900;SDS011;63461;51.416;6.758;2023-03-23T03:51:48;3.77;;;1.70;;
74900;SDS011;63461;51.416;6.758;2023-03-23T03:54:22;3.80;;;1.87;;
74900;SDS011;63461;51.416;6.758;2023-03-23T03:56:47;2.97;;;1.80;;
74900;SDS011;63461;51.416;6.758;2023-03-23T03:59:36;2.53;;;1.73;;
74900;SDS011;63461;51.416;6.758;2023-03-23T04:02:26;6.30;;;3.47;;
74900;SDS011;63461;51.416;6.758;2023-03-23T04:04:53;3.93;;;1.50;;
74900;SDS011;63461;51.416;6.758;2023-03-23T04:07:19;2.30;;;1.63;;
74900;SDS011;63461;51.416;6.758;2023-03-23T04:09:46;5.47;;;2.37;;
74900;SDS011;63461;51.416;6.758;2023-03-23T04:12:15;5.07;;;1.70;;
74900;SDS011;63461;51.416;6.758;2023-03-23T04:15:10;2.87;;;1.60;;
74900;SDS011;63461;51.416;6.758;2023-03-23T04:17:36;3.70;;;1.60;;
74900;SDS011;63461;51.416;6.758;2023-03-23T04:20:03;2.80;;;1.80;;
74900;SDS011;63461;51.416;6.758;2023-03-23T04:22:37;3.00;;;1.83;;
74900;SDS011;63461;51.416;6.758;2023-03-23T04:25:03;3.53;;;1.70;;
74900;SDS011;63461;51.416;6.758;2023-03-23T04:27:33;2.70;;;1.80;;
74900;SDS011;63461;51.416;6.758;2023-03-23T04:30:01;3.00;;;1.67;;
74900;SDS011;63461;51.416;6.758;2023-03-23T04:32:45;4.27;;;1.63;;
74900;SDS011;63461;51.416;6.758;2023-03-23T04:35:17;2.50;;;1.63;;
74900;SDS011;63461;51.416;6.758;2023-03-23T04:37:49;4.90;;;1.57;;
74900;SDS011;63461;51.416;6.758;2023-03-23T04:40:18;3.93;;;2.00;;
74900;SDS011;63461;51.416;6.758;2023-03-23T04:42:54;3.95;;;2.15;;
74900;SDS011;63461;51.416;6.758;2023-03-23T04:45:34;3.87;;;1.80;;
74900;SDS011;63461;51.416;6.758;2023-03-23T04:48:03;4.73;;;1.80;;
74900;SDS011;63461;51.416;6.758;2023-03-23T04:50:41;2.50;;;1.70;;
74900;SDS011;63461;51.416;6.758;2023-03-23T04:53:17;3.10;;;1.80;;
74900;SDS011;63461;51.416;6.758;2023-03-23T04:55:44;3.70;;;1.80;;
74900;SDS011;63461;51.416;6.758;2023-03-23T04:58:13;4.60;;;2.20;;
74900;SDS011;63461;51.416;6.758;2023-03-23T05:00:55;5.27;;;2.00;;
74900;SDS011;63461;51.416;6.758;2023-03-23T05:03:23;5.37;;;1.70;;
74900;SDS011;63461;51.416;6.758;2023-03-23T05:05:52;4.33;;;2.13;;
74900;SDS011;63461;51.416;6.758;2023-03-23T05:08:19;5.90;;;2.40;;
74900;SDS011;63461;51.416;6.758;2023-03-23T05:10:53;4.30;;;2.00;;
74900;SDS011;63461;51.416;6.758;2023-03-23T05:13:23;4.77;;;1.87;;
74900;SDS011;63461;51.416;6.758;2023-03-23T05:15:52;6.23;;;2.80;;
74900;SDS011;63461;51.416;6.758;2023-03-23T05:18:18;3.50;;;1.93;;
74900;SDS011;63461;51.416;6.758;2023-03-23T05:20:45;3.03;;;1.90;;
74900;SDS011;63461;51.416;6.758;2023-03-23T05:23:18;4.43;;;2.50;;
74900;SDS011;63461;51.416;6.758;2023-03-23T05:25:54;5.70;;;2.43;;
74900;SDS011;63461;51.416;6.758;2023-03-23T05:28:22;7.10;;;2.20;;
74900;SDS011;63461;51.416;6.758;2023-03-23T05:30:55;4.40;;;2.00;;
74900;SDS011;63461;51.416;6.758;2023-03-23T05:33:22;7.30;;;2.47;;
74900;SDS011;63461;51.416;6.758;2023-03-23T05:35:52;5.60;;;1.90;;
74900;SDS011;63461;51.416;6.758;2023-03-23T05:38:24;9.47;;;2.33;;
74900;SDS011;63461;51.416;6.758;2023-03-23T05:40:51;7.63;;;2.40;;
74900;SDS011;63461;51.416;6.758;2023-03-23T05:43:23;7.93;;;2.60;;
74900;SDS011;63461;51.416;6.758;2023-03-23T05:46:04;4.47;;;2.60;;
74900;SDS011;63461;51.416;6.758;2023-03-23T05:48:30;10.47;;;3.70;;
74900;SDS011;63461;51.416;6.758;2023-03-23T05:50:56;5.23;;;2.83;;
74900;SDS011;63461;51.416;6.758;2023-03-23T05:53:23;7.33;;;2.70;;
74900;SDS011;63461;51.416;6.758;2023-03-23T05:55:50;5.10;;;2.50;;
74900;SDS011;63461;51.416;6.758;2023-03-23T05:58:29;6.23;;;2.63;;
74900;SDS011;63461;51.416;6.758;2023-03-23T06:00:56;4.53;;;2.40;;
74900;SDS011;63461;51.416;6.758;2023-03-23T06:03:26;8.37;;;2.40;;
74900;SDS011;63461;51.416;6.758;2023-03-23T06:06:01;6.70;;;2.83;;
74900;SDS011;63461;51.416;6.758;2023-03-23T06:08:37;5.27;;;2.63;;
74900;SDS011;63461;51.416;6.758;2023-03-23T06:11:04;8.13;;;2.83;;
74900;SDS011;63461;51.416;6.758;2023-03-23T06:13:33;8.30;;;3.03;;
74900;SDS011;63461;51.416;6.758;2023-03-23T06:16:05;6.10;;;2.63;;
74900;SDS011;63461;51.416;6.758;2023-03-23T06:19:04;6.93;;;2.33;;
74900;SDS011;63461;51.416;6.758;2023-03-23T06:21:36;6.40;;;2.80;;
74900;SDS011;63461;51.416;6.758;2023-03-23T06:24:16;5.23;;;2.60;;
74900;SDS011;63461;51.416;6.758;2023-03-23T06:26:42;5.00;;;2.50;;
74900;SDS011;63461;51.416;6.758;2023-03-23T06:29:14;5.20;;;2.07;;
74900;SDS011;63461;51.416;6.758;2023-03-23T06:31:47;6.57;;;2.07;;
74900;SDS011;63461;51.416;6.758;2023-03-23T06:34:16;5.10;;;2.43;;
74900;SDS011;63461;51.416;6.758;2023-03-23T06:37:01;4.13;;;2.03;;
74900;SDS011;63461;51.416;6.758;2023-03-23T06:39:38;4.47;;;2.50;;
74900;SDS011;63461;51.416;6.758;2023-03-23T06:42:26;4.70;;;2.53;;
74900;SDS011;63461;51.416;6.758;2023-03-23T06:45:14;6.43;;;2.23;;
74900;SDS011;63461;51.416;6.758;2023-03-23T06:47:41;5.93;;;2.40;;
74900;SDS011;63461;51.416;6.758;2023-03-23T06:50:08;3.37;;;2.07;;
74900;SDS011;63461;51.416;6.758;2023-03-23T06:52:35;4.50;;;2.03;;
74900;SDS011;63461;51.416;6.758;2023-03-23T06:55:01;4.33;;;2.20;;
74900;SDS011;63461;51.416;6.758;2023-03-23T06:57:27;3.83;;;1.93;;
74900;SDS011;63461;51.416;6.758;2023-03-23T06:59:54;9.00;;;2.90;;
74900;SDS011;63461;51.416;6.758;2023-03-23T07:02:22;5.00;;;1.90;;
74900;SDS011;63461;51.416;6.758;2023-03-23T07:04:50;5.07;;;2.00;;
74900;SDS011;63461;51.416;6.758;2023-03-23T07:07:25;8.97;;;2.13;;
74900;SDS011;63461;51.416;6.758;2023-03-23T07:10:07;6.30;;;2.30;;
74900;SDS011;63461;51.416;6.758;2023-03-23T07:12:37;2.70;;;1.50;;
74900;SDS011;63461;51.416;6.758;2023-03-23T07:15:05;5.77;;;1.87;;
74900;SDS011;63461;51.416;6.758;2023-03-23T07:17:35;7.80;;;2.60;;
74900;SDS011;63461;51.416;6.758;2023-03-23T07:20:10;6.20;;;2.20;;
74900;SDS011;63461;51.416;6.758;2023-03-23T07:22:37;5.27;;;2.00;;
74900;SDS011;63461;51.416;6.758;2023-03-23T07:25:11;8.00;;;2.40;;
74900;SDS011;63461;51.416;6.758;2023-03-23T07:27:52;5.37;;;2.10;;
74900;SDS011;63461;51.416;6.758;2023-03-23T07:30:18;8.33;;;2.77;;
74900;SDS011;63461;51.416;6.758;2023-03-23T07:32:43;5.43;;;2.20;;
74900;SDS011;63461;51.416;6.758;2023-03-23T07:35:10;8.97;;;2.47;;
74900;SDS011;63461;51.416;6.758;2023-03-23T07:37:47;5.77;;;2.20;;
74900;SDS011;63461;51.416;6.758;2023-03-23T07:40:15;8.07;;;2.00;;
74900;SDS011;63461;51.416;6.758;2023-03-23T07:42:45;5.03;;;1.97;;
74900;SDS011;63461;51.416;6.758;2023-03-23T07:45:25;2.73;;;1.60;;
74900;SDS011;63461;51.416;6.758;2023-03-23T07:47:52;4.77;;;1.70;;
74900;SDS011;63461;51.416;6.758;2023-03-23T07:50:18;7.93;;;1.90;;
74900;SDS011;63461;51.416;6.758;2023-03-23T07:52:47;3.37;;;1.50;;
74900;SDS011;63461;51.416;6.758;2023-03-23T07:55:16;5.27;;;1.87;;
74900;SDS011;63461;51.416;6.758;2023-03-23T07:57:54;4.83;;;1.77;;
74900;SDS011;63461;51.416;6.758;2023-03-23T08:00:20;6.20;;;2.37;;
74900;SDS011;63461;51.416;6.758;2023-03-23T08:02:53;6.23;;;2.17;;
74900;SDS011;63461;51.416;6.758;2023-03-23T08:05:31;7.10;;;2.57;;
74900;SDS011;63461;51.416;6.758;2023-03-23T08:08:17;8.20;;;2.13;;
74900;SDS011;63461;51.416;6.758;2023-03-23T08:11:02;7.40;;;2.13;;
74900;SDS011;63461;51.416;6.758;2023-03-23T08:13:31;7.27;;;2.03;;
74900;SDS011;63461;51.416;6.758;2023-03-23T08:16:31;4.13;;;1.83;;
74900;SDS011;63461;51.416;6.758;2023-03-23T08:19:17;5.57;;;2.27;;
74900;SDS011;63461;51.416;6.758;2023-03-23T08:22:04;9.20;;;2.77;;
74900;SDS011;63461;51.416;6.758;2023-03-23T08:24:51;6.90;;;2.57;;
74900;SDS011;63461;51.416;6.758;2023-03-23T08:27:38;9.50;;;2.60;;
74900;SDS011;63461;51.416;6.758;2023-03-23T08:30:29;11.67;;;3.27;;
74900;SDS011;63461;51.416;6.758;2023-03-23T08:33:17;9.40;;;3.10;;
74900;SDS011;63461;51.416;6.758;2023-03-23T08:35:46;9.07;;;2.97;;
74900;SDS011;63461;51.416;6.758;2023-03-23T08:38:41;9.10;;;2.67;;
74900;SDS011;63461;51.416;6.758;2023-03-23T08:41:34;9.57;;;2.73;;
74900;SDS011;63461;51.416;6.758;2023-03-23T08:44:21;11.03;;;3.00;;
74900;SDS011;63461;51.416;6.758;2023-03-23T08:46:57;8.97;;;2.40;;
74900;SDS011;63461;51.416;6.758;2023-03-23T08:50:02;8.23;;;2.63;;
74900;SDS011;63461;51.416;6.758;2023-03-23T08:52:49;12.27;;;2.53;;
74900;SDS011;63461;51.416;6.758;2023-03-23T08:55:28;9.67;;;2.20;;
74900;SDS011;63461;51.416;6.758;2023-03-23T08:58:30;10.33;;;2.57;;
74900;SDS011;63461;51.416;6.758;2023-03-23T09:00:58;9.60;;;2.07;;
74900;SDS011;63461;51.416;6.758;2023-03-23T09:03:43;10.33;;;2.67;;
74900;SDS011;63461;51.416;6.758;2023-03-23T09:06:24;8.60;;;2.40;;
74900;SDS011;63461;51.416;6.758;2023-03-23T09:08:50;9.00;;;2.70;;
74900;SDS011;63461;51.416;6.758;2023-03-23T09:11:16;6.83;;;2.27;;
74900;SDS011;63461;51.416;6.758;2023-03-23T09:13:42;7.83;;;2.50;;
74900;SDS011;63461;51.416;6.758;2023-03-23T09:16:08;6.70;;;2.00;;
74900;SDS011;63461;51.416;6.758;2023-03-23T09:18:34;8.27;;;2.30;;
74900;SDS011;63461;51.416;6.758;2023-03-23T09:21:01;7.13;;;2.10;;
74900;SDS011;63461;51.416;6.758;2023-03-23T09:23:28;8.00;;;1.87;;
74900;SDS011;63461;51.416;6.758;2023-03-23T09:25:55;8.70;;;2.00;;
74900;SDS011;63461;51.416;6.758;2023-03-23T09:28:21;8.00;;;1.93;;
74900;SDS011;63461;51.416;6.758;2023-03-23T09:30:47;5.23;;;1.70;;
74900;SDS011;63461;51.416;6.758;2023-03-23T09:33:13;8.27;;;2.10;;
74900;SDS011;63461;51.416;6.758;2023-03-23T09:35:40;6.77;;;2.10;;
74900;SDS011;63461;51.416;6.758;2023-03-23T09:38:07;7.20;;;2.10;;
74900;SDS011;63461;51.416;6.758;2023-03-23T09:51:07;5.73;;;1.17;;
74900;SDS011;63461;51.416;6.758;2023-03-23T09:53:37;5.07;;;0.90;;
74900;SDS011;63461;51.416;6.758;2023-03-23T09:56:13;3.37;;;1.10;;
74900;SDS011;63461;51.416;6.758;2023-03-23T09:58:46;3.30;;;0.77;;
74900;SDS011;63461;51.416;6.758;2023-03-23T10:02:09;4.27;;;0.80;;
74900;SDS011;63461;51.416;6.758;2023-03-23T10:04:23;4.80;;;1.20;;
74900;SDS011;63461;51.416;6.758;2023-03-23T10:07:16;4.13;;;1.20;;
74900;SDS011;63461;51.416;6.758;2023-03-23T10:09:48;7.77;;;1.50;;
74900;SDS011;63461;51.416;6.758;2023-03-23T10:18:03;3.97;;;1.53;;
74900;SDS011;63461;51.416;6.758;2023-03-23T10:21:01;5.93;;;2.03;;
74900;SDS011;63461;51.416;6.758;2023-03-23T10:26:24;3.50;;;1.17;;
74900;SDS011;63461;51.416;6.758;2023-03-23T10:31:35;3.30;;;0.87;;
74900;SDS011;63461;51.416;6.758;2023-03-23T10:34:17;3.43;;;1.20;;
74900;SDS011;63461;51.416;6.758;2023-03-23T10:39:41;4.87;;;0.90;;
74900;SDS011;63461;51.416;6.758;2023-03-23T10:42:47;3.87;;;1.10;;
74900;SDS011;63461;51.416;6.758;2023-03-23T10:45:24;3.47;;;1.20;;
74900;SDS011;63461;51.416;6.758;2023-03-23T10:51:03;4.13;;;1.20;;
74900;SDS011;63461;51.416;6.758;2023-03-23T10:53:36;7.03;;;1.20;;
74900;SDS011;63461;51.416;6.758;2023-03-23T10:56:05;2.97;;;1.10;;
74900;SDS011;63461;51.416;6.758;2023-03-23T10:58:44;5.70;;;1.40;;
74900;SDS011;63461;51.416;6.758;2023-03-23T11:01:11;6.40;;;1.93;;
74900;SDS011;63461;51.416;6.758;2023-03-23T11:03:41;15.20;;;2.50;;
74900;SDS011;63461;51.416;6.758;2023-03-23T11:06:18;8.03;;;2.70;;
74900;SDS011;63461;51.416;6.758;2023-03-23T11:08:55;7.40;;;2.93;;
74900;SDS011;63461;51.416;6.758;2023-03-23T11:11:27;10.37;;;2.80;;
74900;SDS011;63461;51.416;6.758;2023-03-23T11:13:59;11.93;;;2.67;;
74900;SDS011;63461;51.416;6.758;2023-03-23T11:16:28;8.43;;;2.83;;
74900;SDS011;63461;51.416;6.758;2023-03-23T11:18:57;8.23;;;2.53;;
74900;SDS011;63461;51.416;6.758;2023-03-23T11:21:24;8.33;;;2.33;;
74900;SDS011;63461;51.416;6.758;2023-03-23T11:23:53;4.67;;;1.97;;
74900;SDS011;63461;51.416;6.758;2023-03-23T11:26:27;5.50;;;2.37;;
74900;SDS011;63461;51.416;6.758;2023-03-23T11:29:43;6.87;;;2.30;;
74900;SDS011;63461;51.416;6.758;2023-03-23T11:32:06;5.13;;;1.60;;
74900;SDS011;63461;51.416;6.758;2023-03-23T11:34:41;5.10;;;1.50;;
74900;SDS011;63461;51.416;6.758;2023-03-23T11:37:25;4.33;;;1.13;;
74900;SDS011;63461;51.416;6.758;2023-03-23T11:45:13;3.47;;;1.40;;
74900;SDS011;63461;51.416;6.758;2023-03-23T11:47:40;4.17;;;1.50;;
74900;SDS011;63461;51.416;6.758;2023-03-23T11:50:43;4.37;;;1.40;;
74900;SDS011;63461;51.416;6.758;2023-03-23T11:55:55;2.90;;;1.00;;
74900;SDS011;63461;51.416;6.758;2023-03-23T11:58:29;1.80;;;0.90;;
74900;SDS011;63461;51.416;6.758;2023-03-23T12:03:58;7.13;;;1.20;;
74900;SDS011;63461;51.416;6.758;2023-03-23T12:09:01;3.50;;;1.30;;
74900;SDS011;63461;51.416;6.758;2023-03-23T12:14:32;5.50;;;1.67;;
74900;SDS011;63461;51.416;6.758;2023-03-23T12:17:17;5.73;;;2.00;;
74900;SDS011;63461;51.416;6.758;2023-03-23T12:22:32;7.93;;;2.10;;
74900;SDS011;63461;51.416;6.758;2023-03-23T12:30:21;8.67;;;2.63;;
74900;SDS011;63461;51.416;6.758;2023-03-23T12:41:15;6.30;;;2.57;;
74900;SDS011;63461;51.416;6.758;2023-03-23T12:43:51;5.27;;;2.80;;
74900;SDS011;63461;51.416;6.758;2023-03-23T12:48:59;7.23;;;3.10;;
74900;SDS011;63461;51.416;6.758;2023-03-23T12:51:36;12.30;;;3.30;;
74900;SDS011;63461;51.416;6.758;2023-03-23T12:56:48;9.20;;;3.50;;
74900;SDS011;63461;51.416;6.758;2023-03-23T12:59:32;7.50;;;3.80;;
74900;SDS011;63461;51.416;6.758;2023-03-23T13:02:23;10.10;;;4.03;;
74900;SDS011;63461;51.416;6.758;2023-03-23T13:04:59;10.73;;;3.90;;
74900;SDS011;63461;51.416;6.758;2023-03-23T13:07:35;7.50;;;2.97;;
74900;SDS011;63461;51.416;6.758;2023-03-23T13:12:45;6.93;;;2.53;;
74900;SDS011;63461;51.416;6.758;2023-03-23T13:17:58;4.90;;;1.73;;
74900;SDS011;63461;51.416;6.758;2023-03-23T13:20:37;5.27;;;1.87;;
74900;SDS011;63461;51.416;6.758;2023-03-23T13:23:22;6.17;;;1.80;;
74900;SDS011;63461;51.416;6.758;2023-03-23T13:28:47;4.37;;;1.80;;
74900;SDS011;63461;51.416;6.758;2023-03-23T13:31:20;5.83;;;1.83;;
74900;SDS011;63461;51.416;6.758;2023-03-23T13:33:52;5.93;;;1.90;;
74900;SDS011;63461;51.416;6.758;2023-03-23T13:39:05;5.17;;;1.37;;
74900;SDS011;63461;51.416;6.758;2023-03-23T13:41:46;6.00;;;1.53;;
74900;SDS011;63461;51.416;6.758;2023-03-23T13:50:01;4.70;;;1.80;;
74900;SDS011;63461;51.416;6.758;2023-03-23T14:05:51;5.23;;;1.83;;
74900;SDS011;63461;51.416;6.758;2023-03-23T14:10:54;6.05;;;2.13;;
74900;SDS011;63461;51.416;6.758;2023-03-23T14:13:43;6.82;;;2.30;;
74900;SDS011;63461;51.416;6.758;2023-03-23T14:16:41;6.60;;;3.10;;
74900;SDS011;63461;51.416;6.758;2023-03-23T14:19:25;11.52;;;3.72;;
74900;SDS011;63461;51.416;6.758;2023-03-23T14:21:57;5.95;;;1.83;;
74900;SDS011;63461;51.416;6.758;2023-03-23T14:24:32;4.47;;;2.20;;
74900;SDS011;63461;51.416;6.758;2023-03-23T14:30:05;3.47;;;1.98;;
74900;SDS011;63461;51.416;6.758;2023-03-23T14:32:39;4.73;;;2.23;;
74900;SDS011;63461;51.416;6.758;2023-03-23T14:35:07;6.47;;;2.53;;
74900;SDS011;63461;51.416;6.758;2023-03-23T14:37:38;4.05;;;2.10;;
74900;SDS011;63461;51.416;6.758;2023-03-23T14:40:04;4.20;;;2.40;;
74900;SDS011;63461;51.416;6.758;2023-03-23T14:42:35;3.78;;;2.20;;
74900;SDS011;63461;51.416;6.758;2023-03-23T14:45:01;6.60;;;2.42;;
74900;SDS011;63461;51.416;6.758;2023-03-23T14:47:37;4.47;;;2.55;;
74900;SDS011;63461;51.416;6.758;2023-03-23T14:56:00;6.30;;;3.03;;
74900;SDS011;63461;51.416;6.758;2023-03-23T14:58:28;9.98;;;2.88;;
74900;SDS011;63461;51.416;6.758;2023-03-23T15:00:57;9.97;;;3.83;;
74900;SDS011;63461;51.416;6.758;2023-03-23T15:03:27;8.95;;;3.58;;
74900;SDS011;63461;51.416;6.758;2023-03-23T15:05:59;8.63;;;2.80;;
74900;SDS011;63461;51.416;6.758;2023-03-23T15:08:30;8.33;;;3.17;;
74900;SDS011;63461;51.416;6.758;2023-03-23T15:13:26;11.60;;;3.10;;
74900;SDS011;63461;51.416;6.758;2023-03-23T15:16:00;8.85;;;3.20;;
74900;SDS011;63461;51.416;6.758;2023-03-23T15:18:31;9.35;;;4.00;;
74900;SDS011;63461;51.416;6.758;2023-03-23T15:21:07;13.10;;;3.27;;
74900;SDS011;63461;51.416;6.758;2023-03-23T15:23:35;8.70;;;2.80;;
74900;SDS011;63461;51.416;6.758;2023-03-23T15:26:22;6.68;;;2.20;;
74900;SDS011;63461;51.416;6.758;2023-03-23T15:31:42;6.18;;;2.20;;
74900;SDS011;63461;51.416;6.758;2023-03-23T15:34:13;5.88;;;2.20;;
74900;SDS011;63461;51.416;6.758;2023-03-23T15:36:42;5.35;;;1.83;;
74900;SDS011;63461;51.416;6.758;2023-03-23T15:39:12;6.17;;;2.00;;
74900;SDS011;63461;51.416;6.758;2023-03-23T15:41:45;7.57;;;2.17;;
74900;SDS011;63461;51.416;6.758;2023-03-23T15:44:54;10.02;;;2.08;;
74900;SDS011;63461;51.416;6.758;2023-03-23T15:47:17;8.60;;;2.80;;
74900;SDS011;63461;51.416;6.758;2023-03-23T15:49:45;12.57;;;2.67;;
74900;SDS011;63461;51.416;6.758;2023-03-23T15:52:12;7.47;;;2.33;;
74900;SDS011;63461;51.416;6.758;2023-03-23T15:54:45;8.75;;;2.20;;
74900;SDS011;63461;51.416;6.758;2023-03-23T15:57:12;7.43;;;2.42;;
74900;SDS011;63461;51.416;6.758;2023-03-23T15:59:38;4.87;;;2.10;;
74900;SDS011;63461;51.416;6.758;2023-03-23T16:02:03;6.10;;;2.33;;
74900;SDS011;63461;51.416;6.758;2023-03-23T16:04:29;6.68;;;2.08;;
74900;SDS011;63461;51.416;6.758;2023-03-23T16:06:58;5.20;;;2.23;;
74900;SDS011;63461;51.416;6.758;2023-03-23T16:09:31;12.50;;;2.45;;
74900;SDS011;63461;51.416;6.758;2023-03-23T16:12:00;11.10;;;2.00;;
74900;SDS011;63461;51.416;6.758;2023-03-23T16:14:28;8.73;;;1.97;;
74900;SDS011;63461;51.416;6.758;2023-03-23T16:16:54;4.93;;;1.87;;
74900;SDS011;63461;51.416;6.758;2023-03-23T16:19:31;7.18;;;2.22;;
74900;SDS011;63461;51.416;6.758;2023-03-23T16:22:03;7.33;;;2.17;;
74900;SDS011;63461;51.416;6.758;2023-03-23T16:24:29;8.83;;;2.17;;
74900;SDS011;63461;51.416;6.758;2023-03-23T16:26:58;6.83;;;1.80;;
74900;SDS011;63461;51.416;6.758;2023-03-23T16:29:28;5.93;;;2.20;;
74900;SDS011;63461;51.416;6.758;2023-03-23T16:31:57;4.43;;;2.10;;
74900;SDS011;63461;51.416;6.758;2023-03-23T16:34:23;8.38;;;2.08;;
74900;SDS011;63461;51.416;6.758;2023-03-23T16:36:49;6.87;;;1.90;;
74900;SDS011;63461;51.416;6.758;2023-03-23T16:39:17;5.28;;;2.08;;
74900;SDS011;63461;51.416;6.758;2023-03-23T16:41:43;6.03;;;2.20;;
74900;SDS011;63461;51.416;6.758;2023-03-23T16:44:10;4.50;;;1.90;;
74900;SDS011;63461;51.416;6.758;2023-03-23T16:46:39;5.82;;;1.67;;
74900;SDS011;63461;51.416;6.758;2023-03-23T16:49:05;6.43;;;2.20;;
74900;SDS011;63461;51.416;6.758;2023-03-23T16:51:34;5.63;;;1.77;;
74900;SDS011;63461;51.416;6.758;2023-03-23T16:54:00;7.68;;;3.40;;
74900;SDS011;63461;51.416;6.758;2023-03-23T16:56:26;7.97;;;2.87;;
74900;SDS011;63461;51.416;6.758;2023-03-23T16:58:58;9.17;;;2.17;;
74900;SDS011;63461;51.416;6.758;2023-03-23T17:01:33;7.88;;;2.25;;
74900;SDS011;63461;51.416;6.758;2023-03-23T17:03:59;5.73;;;1.73;;
74900;SDS011;63461;51.416;6.758;2023-03-23T17:06:28;8.30;;;1.92;;
74900;SDS011;63461;51.416;6.758;2023-03-23T17:08:59;6.30;;;2.20;;
74900;SDS011;63461;51.416;6.758;2023-03-23T17:11:31;5.45;;;1.88;;
74900;SDS011;63461;51.416;6.758;2023-03-23T17:13:57;8.30;;;2.27;;
74900;SDS011;63461;51.416;6.758;2023-03-23T17:16:23;5.40;;;2.10;;
74900;SDS011;63461;51.416;6.758;2023-03-23T17:18:55;6.05;;;2.30;;
74900;SDS011;63461;51.416;6.758;2023-03-23T17:21:23;7.00;;;2.00;;
74900;SDS011;63461;51.416;6.758;2023-03-23T17:23:50;6.83;;;1.77;;
74900;SDS011;63461;51.416;6.758;2023-03-23T17:26:22;6.47;;;2.00;;
74900;SDS011;63461;51.416;6.758;2023-03-23T17:28:47;6.95;;;2.35;;
74900;SDS011;63461;51.416;6.758;2023-03-23T17:31:13;6.30;;;2.20;;
74900;SDS011;63461;51.416;6.758;2023-03-23T17:33:39;7.80;;;2.63;;
74900;SDS011;63461;51.416;6.758;2023-03-23T17:36:07;6.87;;;2.20;;